createdAt,value
2018-05-31T00:00:10.925Z,88.10
2018-05-31T00:03:14.262Z,87.90
2018-05-31T00:06:22.553Z,88.20
2018-05-31T00:09:25.901Z,87.60
2018-05-31T00:12:29.238Z,87.60
2018-05-31T00:15:33.291Z,87.60
2018-05-31T00:18:37.479Z,87.50
2018-05-31T00:21:40.847Z,87.50
2018-05-31T00:24:44.204Z,87.30
2018-05-31T00:27:47.547Z,87.40
2018-05-31T00:30:50.894Z,87.80
2018-05-31T00:33:54.959Z,88.00
2018-05-31T00:36:58.308Z,87.90
2018-05-31T00:40:01.665Z,87.90
2018-05-31T00:43:05.057Z,87.60
2018-05-31T00:46:08.409Z,87.50
2018-05-31T00:49:11.771Z,87.50
2018-05-31T00:52:16.237Z,87.30
2018-05-31T00:55:37.333Z,87.20
2018-05-31T00:58:40.679Z,87.80
2018-05-31T01:01:44.829Z,88.10
2018-05-31T01:04:48.975Z,88.70
2018-05-31T01:07:52.320Z,88.70
2018-05-31T01:10:56.591Z,89.60
2018-05-31T01:13:59.934Z,90.00
2018-05-31T01:17:03.338Z,89.80
2018-05-31T01:20:06.735Z,90.00
2018-05-31T01:23:10.072Z,90.30
2018-05-31T01:26:13.408Z,90.70
2018-05-31T01:29:16.743Z,90.40
2018-05-31T01:32:20.923Z,90.60
2018-05-31T01:35:24.274Z,90.60
2018-05-31T01:38:33.262Z,90.80
2018-05-31T01:41:36.605Z,91.10
2018-05-31T01:44:39.953Z,90.90
2018-05-31T01:47:43.363Z,91.30
2018-05-31T01:50:47.474Z,91.40
2018-05-31T01:53:52.386Z,91.40
2018-05-31T01:56:55.699Z,91.40
2018-05-31T01:59:59.924Z,91.70
2018-05-31T02:03:04.021Z,91.70
2018-05-31T02:06:07.375Z,91.70
2018-05-31T02:09:10.856Z,91.60
2018-05-31T02:12:14.192Z,91.70
2018-05-31T02:15:18.304Z,92.00
2018-05-31T02:18:21.611Z,92.00
2018-05-31T02:21:24.985Z,92.00
2018-05-31T02:24:28.371Z,92.00
2018-05-31T02:27:31.729Z,92.20
2018-05-31T02:30:35.938Z,92.10
2018-05-31T02:33:39.283Z,92.10
2018-05-31T02:36:42.620Z,92.30
2018-05-31T02:39:46.119Z,92.10
2018-05-31T02:42:49.467Z,92.10
2018-05-31T02:45:52.903Z,91.90
2018-05-31T02:48:56.240Z,92.00
2018-05-31T02:52:00.314Z,91.80
2018-05-31T02:55:03.763Z,91.80
2018-05-31T02:58:07.137Z,91.60
2018-05-31T03:01:11.246Z,91.70
2018-05-31T03:04:14.710Z,91.70
2018-05-31T03:07:18.138Z,92.00
2018-05-31T03:10:21.718Z,91.80
2018-05-31T03:13:25.040Z,91.80
2018-05-31T03:16:28.424Z,91.90
2018-05-31T03:19:31.828Z,92.40
2018-05-31T03:22:35.133Z,92.10
2018-05-31T03:25:39.263Z,91.60
2018-05-31T03:28:43.446Z,91.20
2018-05-31T03:31:46.801Z,91.20
2018-05-31T03:34:50.808Z,91.20
2018-05-31T03:37:54.142Z,90.90
2018-05-31T03:40:57.449Z,90.70
2018-05-31T03:44:00.802Z,90.50
2018-05-31T03:47:04.150Z,90.60
2018-05-31T03:50:07.501Z,90.30
2018-05-31T03:53:10.944Z,90.30
2018-05-31T03:56:14.344Z,90.30
2018-05-31T03:59:17.665Z,90.10
2018-05-31T04:02:21.027Z,90.10
2018-05-31T04:05:24.375Z,90.40
2018-05-31T04:08:27.695Z,90.60
2018-05-31T04:11:31.046Z,91.10
2018-05-31T04:14:35.141Z,91.40
2018-05-31T04:17:38.483Z,91.40
2018-05-31T04:20:41.837Z,91.50
2018-05-31T04:23:45.179Z,91.50
2018-05-31T04:26:48.517Z,91.70
2018-05-31T04:29:51.849Z,91.60
2018-05-31T04:32:55.184Z,91.80
2018-05-31T04:35:58.503Z,91.70
2018-05-31T04:39:01.852Z,91.70
2018-05-31T04:42:05.188Z,91.60
2018-05-31T04:45:08.518Z,91.60
2018-05-31T04:48:12.649Z,91.50
2018-05-31T04:51:15.989Z,91.50
2018-05-31T04:54:19.330Z,91.30
2018-05-31T04:57:23.505Z,91.00
2018-05-31T05:00:26.889Z,91.00
2018-05-31T05:03:30.218Z,90.70
2018-05-31T05:06:33.576Z,90.40
2018-05-31T05:09:36.893Z,90.50
2018-05-31T05:12:40.254Z,90.50
2018-05-31T05:15:43.599Z,90.00
2018-05-31T05:18:46.989Z,90.00
2018-05-31T05:24:55.012Z,90.10
2018-05-31T05:27:58.363Z,90.00
2018-05-31T05:31:01.732Z,89.80
2018-05-31T05:34:05.847Z,90.20
2018-05-31T05:37:09.948Z,89.50
2018-05-31T05:40:13.273Z,89.50
2018-05-31T05:43:16.598Z,89.40
2018-05-31T05:46:19.959Z,89.40
2018-05-31T05:49:23.290Z,89.00
2018-05-31T05:52:26.647Z,88.80
2018-05-31T05:55:31.709Z,88.60
2018-05-31T05:58:36.379Z,88.60
2018-05-31T06:01:39.777Z,88.20
2018-05-31T06:04:43.194Z,88.10
2018-05-31T06:07:47.311Z,87.00
2018-05-31T06:10:51.472Z,86.20
2018-05-31T06:13:54.832Z,86.20
2018-05-31T06:16:58.964Z,86.00
2018-05-31T06:20:02.371Z,86.00
2018-05-31T06:23:05.693Z,86.30
2018-05-31T06:26:09.115Z,86.20
2018-05-31T06:29:12.466Z,87.60
2018-05-31T06:32:15.828Z,87.30
2018-05-31T06:35:19.948Z,85.90
2018-05-31T06:38:24.907Z,84.90
2018-05-31T06:41:28.288Z,85.50
2018-05-31T06:44:32.365Z,85.10
2018-05-31T06:47:35.715Z,85.10
2018-05-31T06:50:39.056Z,85.20
2018-05-31T06:53:42.399Z,85.80
2018-05-31T06:56:45.787Z,85.10
2018-05-31T06:59:49.898Z,85.90
2018-05-31T07:02:54.074Z,85.50
2018-05-31T07:05:57.475Z,85.50
2018-05-31T07:09:00.808Z,85.80
2018-05-31T07:12:04.914Z,84.10
2018-05-31T07:15:09.009Z,85.10
2018-05-31T07:18:13.141Z,84.20
2018-05-31T07:21:16.640Z,83.40
2018-05-31T07:24:19.981Z,82.70
2018-05-31T07:27:23.303Z,83.30
2018-05-31T07:30:26.623Z,83.50
2018-05-31T07:33:30.824Z,83.30
2018-05-31T07:36:34.161Z,83.30
2018-05-31T07:39:37.523Z,84.30
2018-05-31T07:42:40.870Z,84.40
2018-05-31T07:45:44.142Z,83.40
2018-05-31T07:48:47.513Z,84.30
2018-05-31T07:51:50.831Z,83.80
2018-05-31T07:54:54.938Z,83.00
2018-05-31T07:57:59.315Z,83.10
2018-05-31T08:01:02.671Z,84.40
2018-05-31T08:04:06.759Z,84.70
2018-05-31T08:07:10.107Z,83.90
2018-05-31T08:10:13.434Z,85.20
2018-05-31T08:13:16.791Z,84.10
2018-05-31T08:16:20.101Z,83.80
2018-05-31T08:19:23.488Z,84.10
2018-05-31T08:22:26.820Z,84.00
2018-05-31T08:25:30.193Z,83.90
2018-05-31T08:28:33.478Z,84.10
2018-05-31T08:31:37.300Z,84.50
2018-05-31T08:34:41.350Z,83.30
2018-05-31T08:37:44.711Z,83.30
2018-05-31T08:40:48.042Z,83.00
2018-05-31T08:43:51.395Z,83.70
2018-05-31T08:46:54.729Z,84.00
2018-05-31T08:49:58.086Z,83.50
2018-05-31T08:53:01.418Z,83.90
2018-05-31T08:56:05.150Z,85.00
2018-05-31T08:59:08.509Z,84.80
2018-05-31T09:02:11.878Z,85.70
2018-05-31T09:05:15.274Z,83.80
2018-05-31T09:08:18.637Z,81.00
2018-05-31T09:11:22.751Z,82.00
2018-05-31T09:14:27.057Z,82.80
2018-05-31T09:17:30.354Z,82.80
2018-05-31T09:20:34.518Z,80.70
2018-05-31T09:23:37.850Z,80.70
2018-05-31T09:26:41.196Z,79.20
2018-05-31T09:29:44.540Z,79.60
2018-05-31T09:32:47.933Z,80.30
2018-05-31T09:35:51.288Z,79.80
2018-05-31T09:38:54.618Z,80.10
2018-05-31T09:41:57.954Z,79.50
2018-05-31T09:45:02.136Z,79.60
2018-05-31T09:48:05.436Z,79.60
2018-05-31T09:51:08.796Z,78.40
2018-05-31T09:54:12.118Z,77.20
2018-05-31T09:57:15.475Z,76.40
2018-05-31T10:00:19.540Z,76.80
2018-05-31T10:03:22.889Z,76.90
2018-05-31T10:06:26.238Z,78.50
2018-05-31T10:09:29.633Z,79.10
2018-05-31T10:12:32.955Z,78.80
2018-05-31T10:15:37.109Z,77.00
2018-05-31T10:18:40.429Z,77.00
2018-05-31T10:21:43.790Z,76.90
2018-05-31T10:24:47.117Z,76.90
2018-05-31T10:27:50.460Z,77.00
2018-05-31T10:30:54.549Z,77.30
2018-05-31T10:33:57.925Z,77.10
2018-05-31T10:37:01.256Z,79.20
2018-05-31T10:40:04.580Z,77.60
2018-05-31T10:43:07.913Z,77.20
2018-05-31T10:46:11.253Z,77.30
2018-05-31T10:49:15.342Z,77.70
2018-05-31T10:52:18.662Z,77.00
2018-05-31T10:55:22.013Z,77.40
2018-05-31T10:58:25.362Z,75.80
2018-05-31T11:01:29.437Z,76.50
2018-05-31T11:04:32.754Z,76.40
2018-05-31T11:07:36.857Z,75.20
2018-05-31T11:10:40.278Z,75.20
2018-05-31T11:13:44.365Z,74.60
2018-05-31T11:16:48.481Z,73.90
2018-05-31T11:19:51.804Z,74.00
2018-05-31T11:22:55.937Z,74.10
2018-05-31T11:25:59.257Z,74.10
2018-05-31T11:29:02.607Z,74.10
2018-05-31T11:32:05.933Z,75.10
2018-05-31T11:35:09.276Z,75.80
2018-05-31T11:38:12.624Z,74.90
2018-05-31T11:41:16.050Z,75.10
2018-05-31T11:44:19.381Z,74.70
2018-05-31T11:47:22.776Z,74.30
2018-05-31T11:50:26.156Z,75.10
2018-05-31T11:53:29.543Z,75.30
2018-05-31T11:56:32.875Z,74.90
2018-05-31T11:59:36.214Z,75.40
2018-05-31T12:02:39.553Z,74.40
2018-05-31T12:05:42.965Z,76.20
2018-05-31T12:08:46.297Z,75.00
2018-05-31T12:11:49.653Z,74.50
2018-05-31T12:14:52.998Z,74.90
2018-05-31T12:17:56.371Z,74.40
2018-05-31T12:21:00.462Z,73.10
2018-05-31T12:24:03.802Z,73.20
2018-05-31T12:27:07.134Z,74.30
2018-05-31T12:30:10.486Z,73.10
2018-05-31T12:33:13.815Z,73.00
2018-05-31T12:36:17.167Z,73.30
2018-05-31T12:39:21.274Z,74.60
2018-05-31T12:42:25.379Z,74.00
2018-05-31T12:45:28.715Z,73.90
2018-05-31T12:48:32.071Z,74.10
2018-05-31T12:51:35.399Z,74.50
2018-05-31T12:54:38.767Z,73.80
2018-05-31T12:57:42.869Z,72.70
2018-05-31T13:00:46.219Z,72.70
2018-05-31T13:03:49.545Z,72.60
2018-05-31T13:06:52.885Z,73.10
2018-05-31T13:09:56.201Z,72.60
2018-05-31T13:12:59.551Z,72.50
2018-05-31T13:16:02.858Z,73.50
2018-05-31T13:19:06.965Z,71.30
2018-05-31T13:22:11.205Z,71.40
2018-05-31T13:25:15.331Z,71.80
2018-05-31T13:28:18.667Z,71.70
2018-05-31T13:31:22.010Z,71.10
2018-05-31T13:34:26.100Z,69.20
2018-05-31T13:37:29.474Z,69.20
2018-05-31T13:40:32.837Z,70.90
2018-05-31T13:43:36.224Z,70.90
2018-05-31T13:46:39.531Z,71.30
2018-05-31T13:49:42.886Z,72.40
2018-05-31T13:52:46.277Z,71.20
2018-05-31T13:55:49.633Z,71.90
2018-05-31T13:58:52.936Z,71.60
2018-05-31T14:01:56.307Z,71.20
2018-05-31T14:04:59.621Z,69.80
2018-05-31T14:08:02.953Z,68.90
2018-05-31T14:11:06.290Z,69.60
2018-05-31T14:14:09.597Z,69.50
2018-05-31T14:17:12.942Z,70.90
2018-05-31T14:20:16.293Z,70.90
2018-05-31T14:23:19.613Z,69.80
2018-05-31T14:26:22.989Z,70.60
2018-05-31T14:29:26.310Z,69.70
2018-05-31T14:32:29.693Z,70.30
2018-05-31T14:35:33.005Z,70.50
2018-05-31T14:38:36.341Z,70.90
2018-05-31T14:41:40.426Z,71.30
2018-05-31T14:44:43.798Z,71.30
2018-05-31T14:47:47.127Z,71.20
2018-05-31T14:50:50.510Z,72.00
2018-05-31T14:53:53.839Z,71.50
2018-05-31T14:56:57.214Z,70.60
2018-05-31T15:00:00.604Z,70.80
2018-05-31T15:03:04.030Z,69.60
2018-05-31T15:06:08.124Z,70.50
2018-05-31T15:09:11.765Z,70.50
2018-05-31T15:12:15.104Z,69.90
2018-05-31T15:15:18.452Z,67.70
2018-05-31T15:18:22.549Z,66.80
2018-05-31T15:21:25.961Z,66.90
2018-05-31T15:24:30.098Z,64.60
2018-05-31T15:27:33.543Z,65.40
2018-05-31T15:30:36.940Z,64.50
2018-05-31T15:33:40.345Z,64.00
2018-05-31T15:36:43.749Z,64.80
2018-05-31T15:39:47.085Z,64.90
2018-05-31T15:42:50.388Z,63.60
2018-05-31T15:45:53.754Z,62.90
2018-05-31T15:48:57.829Z,62.40
2018-05-31T15:52:01.182Z,62.30
2018-05-31T15:55:04.936Z,62.50
2018-05-31T15:58:08.314Z,62.60
2018-05-31T16:01:11.655Z,62.40
2018-05-31T16:04:14.968Z,61.20
2018-05-31T16:07:18.299Z,61.20
2018-05-31T16:10:21.645Z,61.90
2018-05-31T16:13:24.984Z,61.10
2018-05-31T16:16:28.333Z,62.00
2018-05-31T16:19:31.727Z,62.30
2018-05-31T16:22:35.095Z,62.50
2018-05-31T16:25:38.415Z,63.10
2018-05-31T16:28:41.724Z,63.00
2018-05-31T16:31:45.822Z,62.00
2018-05-31T16:34:49.957Z,61.00
2018-05-31T16:37:54.053Z,59.90
2018-05-31T16:40:57.453Z,59.90
2018-05-31T16:44:00.842Z,60.90
2018-05-31T16:47:04.233Z,61.60
2018-05-31T16:50:07.687Z,61.20
2018-05-31T16:53:11.019Z,61.50
2018-05-31T16:56:15.056Z,62.50
2018-05-31T16:59:18.487Z,62.30
2018-05-31T17:02:21.864Z,62.20
2018-05-31T17:05:25.990Z,63.10
2018-05-31T17:08:30.181Z,63.40
2018-05-31T17:11:33.536Z,63.30
2018-05-31T17:14:36.913Z,63.50
2018-05-31T17:17:40.268Z,65.30
2018-05-31T17:20:43.581Z,67.40
2018-05-31T17:23:46.925Z,67.80
2018-05-31T17:26:50.263Z,69.00
2018-05-31T17:29:53.578Z,70.60
2018-05-31T17:32:56.924Z,71.60
2018-05-31T17:36:00.295Z,73.20
2018-05-31T17:39:03.636Z,73.80
2018-05-31T17:42:06.992Z,75.00
2018-05-31T17:45:10.316Z,75.50
2018-05-31T17:48:14.565Z,76.20
2018-05-31T17:51:17.904Z,77.20
2018-05-31T17:54:21.237Z,77.10
2018-05-31T17:57:25.489Z,77.90
2018-05-31T18:00:29.600Z,77.80
2018-05-31T18:03:33.700Z,78.60
2018-05-31T18:06:37.053Z,78.10
2018-05-31T18:09:40.413Z,78.30
2018-05-31T18:12:44.546Z,78.80
2018-05-31T18:15:47.875Z,78.70
2018-05-31T18:18:51.191Z,79.60
2018-05-31T18:21:54.572Z,79.90
2018-05-31T18:24:57.924Z,80.20
2018-05-31T18:28:02.001Z,79.60
2018-05-31T18:31:05.367Z,79.60
2018-05-31T18:34:08.765Z,79.50
2018-05-31T18:37:12.114Z,79.60
2018-05-31T18:40:16.223Z,80.40
2018-05-31T18:43:19.580Z,79.90
2018-05-31T18:46:22.912Z,79.30
2018-05-31T18:49:26.229Z,78.10
2018-05-31T18:52:29.568Z,77.90
2018-05-31T18:55:32.935Z,77.80
2018-05-31T18:58:36.910Z,78.00
2018-05-31T19:01:40.313Z,77.80
2018-05-31T19:04:43.627Z,77.90
2018-05-31T19:07:47.767Z,76.40
2018-05-31T19:10:51.102Z,76.50
2018-05-31T19:13:58.445Z,75.80
2018-05-31T19:17:01.770Z,75.40
2018-05-31T19:20:05.109Z,75.10
2018-05-31T19:23:09.195Z,71.90
2018-05-31T19:26:12.569Z,71.80
2018-05-31T19:29:16.025Z,71.50
2018-05-31T19:32:20.252Z,70.00
2018-05-31T19:35:29.889Z,70.20
2018-05-31T19:38:34.001Z,69.60
2018-05-31T19:41:38.094Z,69.60
2018-05-31T19:44:41.436Z,69.60
2018-05-31T19:47:45.271Z,69.90
2018-05-31T19:50:48.614Z,70.20
2018-05-31T19:56:56.659Z,69.50
2018-05-31T20:00:05.472Z,69.50
2018-05-31T20:03:15.303Z,69.10
2018-05-31T20:06:18.599Z,69.10
2018-05-31T20:09:21.996Z,69.40
2018-05-31T20:12:25.338Z,70.80
2018-05-31T20:15:28.670Z,71.70
2018-05-31T20:18:32.025Z,72.50
2018-05-31T20:21:35.341Z,72.60
2018-05-31T20:24:38.726Z,72.30
2018-05-31T20:27:42.086Z,71.70
2018-05-31T20:30:46.198Z,72.00
2018-05-31T20:33:50.565Z,71.90
2018-05-31T20:36:53.881Z,71.00
2018-05-31T20:39:57.303Z,70.40
2018-05-31T20:43:00.646Z,69.50
2018-05-31T20:46:04.111Z,70.00
2018-05-31T20:49:08.194Z,70.80
2018-05-31T20:52:11.536Z,70.60
2018-05-31T20:55:14.873Z,69.90
2018-05-31T20:58:18.233Z,69.80
2018-05-31T21:01:21.540Z,69.00
2018-05-31T21:04:25.163Z,68.50
2018-05-31T21:07:28.499Z,68.00
2018-05-31T21:10:32.603Z,68.70
2018-05-31T21:13:35.928Z,68.70
2018-05-31T21:16:39.274Z,68.20
2018-05-31T21:19:42.601Z,68.30
2018-05-31T21:22:46.754Z,68.30
2018-05-31T21:25:50.910Z,68.70
2018-05-31T21:28:54.297Z,68.70
2018-05-31T21:31:57.667Z,68.70
2018-05-31T21:35:01.041Z,68.80
2018-05-31T21:38:04.360Z,69.00
2018-05-31T21:41:07.729Z,69.40
2018-05-31T21:44:11.818Z,69.30
2018-05-31T21:47:15.244Z,69.30
2018-05-31T21:50:18.548Z,69.10
2018-05-31T21:53:21.985Z,68.60
2018-05-31T21:56:25.293Z,67.40
2018-05-31T21:59:28.674Z,67.00
2018-05-31T22:02:31.982Z,67.40
2018-05-31T22:05:35.339Z,67.80
2018-05-31T22:08:38.668Z,67.30
2018-05-31T22:11:42.031Z,67.20
2018-05-31T22:14:45.435Z,67.10
2018-05-31T22:17:48.850Z,67.60
2018-05-31T22:20:52.414Z,68.90
2018-05-31T22:23:55.897Z,69.60
2018-05-31T22:26:59.233Z,69.80
2018-05-31T22:30:02.557Z,69.30
2018-05-31T22:33:05.889Z,68.40
2018-05-31T22:36:10.020Z,70.80
2018-05-31T22:39:13.425Z,70.80
2018-05-31T22:42:16.735Z,71.50
2018-05-31T22:45:20.156Z,71.90
2018-05-31T22:48:23.557Z,72.00
2018-05-31T22:51:26.954Z,72.90
2018-05-31T22:54:30.353Z,72.30
2018-05-31T22:57:33.690Z,71.70
2018-05-31T23:00:37.883Z,72.80
2018-05-31T23:03:41.189Z,72.80
2018-05-31T23:06:45.353Z,74.10
2018-05-31T23:09:48.775Z,74.80
2018-05-31T23:12:52.105Z,75.30
2018-05-31T23:15:56.210Z,76.00
2018-05-31T23:18:59.521Z,76.00
2018-05-31T23:22:03.685Z,75.40
2018-05-31T23:25:07.029Z,75.50
2018-05-31T23:28:11.122Z,76.20
2018-05-31T23:31:14.462Z,76.10
2018-05-31T23:34:18.344Z,76.50
2018-05-31T23:37:22.426Z,77.90
2018-05-31T23:40:25.749Z,77.90
2018-05-31T23:43:29.109Z,77.90
2018-05-31T23:46:32.511Z,77.30
2018-05-31T23:49:35.909Z,76.90
2018-05-31T23:52:39.304Z,77.50
2018-05-31T23:55:42.629Z,77.80
2018-05-31T23:58:46.004Z,78.20
